createdAt,value
2023-04-26T00:00:55.517Z,3.30
2023-04-26T00:01:56.194Z,3.50
2023-04-26T00:02:57.045Z,3.20
2023-04-26T00:03:57.959Z,3.30
2023-04-26T00:04:58.498Z,4.20
2023-04-26T00:05:58.861Z,4.10
2023-04-26T00:06:59.615Z,3.90
2023-04-26T00:08:00.249Z,3.70
2023-04-26T00:09:01.291Z,3.50
2023-04-26T00:10:01.487Z,3.70
2023-04-26T00:11:02.195Z,3.50
2023-04-26T00:12:02.893Z,3.70
2023-04-26T00:13:03.614Z,3.90
2023-04-26T00:14:04.791Z,4.00
2023-04-26T00:15:05.010Z,3.90
2023-04-26T00:16:05.729Z,3.80
2023-04-26T00:17:06.408Z,4.00
2023-04-26T00:18:07.227Z,3.70
2023-04-26T00:19:08.277Z,3.80
2023-04-26T00:20:08.486Z,4.10
2023-04-26T00:21:09.202Z,4.20
2023-04-26T00:22:10.680Z,4.20
2023-04-26T00:23:10.819Z,4.60
2023-04-26T00:24:11.779Z,4.20
2023-04-26T00:25:12.487Z,3.90
2023-04-26T00:26:13.215Z,4.10
2023-04-26T00:27:13.896Z,3.90
2023-04-26T00:28:14.605Z,4.30
2023-04-26T00:29:15.778Z,4.10
2023-04-26T00:30:15.988Z,4.40
2023-04-26T00:31:16.750Z,4.20
2023-04-26T00:32:17.434Z,4.10
2023-04-26T00:33:18.165Z,4.30
2023-04-26T00:34:19.278Z,4.00
2023-04-26T00:35:19.492Z,4.40
2023-04-26T00:36:20.198Z,4.30
2023-04-26T00:37:21.086Z,4.50
2023-04-26T00:38:21.720Z,4.20
2023-04-26T00:39:22.778Z,4.40
2023-04-26T00:40:22.993Z,4.90
2023-04-26T00:41:23.688Z,4.50
2023-04-26T00:42:24.401Z,4.60
2023-04-26T00:43:25.111Z,4.90
2023-04-26T00:44:26.292Z,4.70
2023-04-26T00:45:26.543Z,4.80
2023-04-26T00:46:27.349Z,5.10
2023-04-26T00:47:28.064Z,5.10
2023-04-26T00:48:28.847Z,4.90
2023-04-26T00:49:29.787Z,4.90
2023-04-26T00:50:30.002Z,5.10
2023-04-26T00:51:30.712Z,4.70
2023-04-26T00:52:31.430Z,5.20
2023-04-26T00:53:32.125Z,5.10
2023-04-26T00:54:33.291Z,5.10
2023-04-26T00:55:33.502Z,4.60
2023-04-26T00:56:34.194Z,5.40
2023-04-26T00:57:34.899Z,5.20
2023-04-26T00:58:35.608Z,5.10
2023-04-26T00:59:36.789Z,4.90
2023-04-26T01:00:36.991Z,4.90
2023-04-26T01:01:37.755Z,4.90
2023-04-26T01:02:38.584Z,5.30
2023-04-26T01:03:39.452Z,5.20
2023-04-26T01:04:40.278Z,4.70
2023-04-26T01:05:40.993Z,5.10
2023-04-26T01:06:41.691Z,5.20
2023-04-26T01:07:42.412Z,4.60
2023-04-26T01:08:43.079Z,5.00
2023-04-26T01:09:44.280Z,4.90
2023-04-26T01:10:44.491Z,4.70
2023-04-26T01:11:45.201Z,5.10
2023-04-26T01:12:45.905Z,5.30
2023-04-26T01:13:46.614Z,5.30
2023-04-26T01:14:47.792Z,5.70
2023-04-26T01:15:47.985Z,5.50
2023-04-26T01:16:48.717Z,5.50
2023-04-26T01:17:49.465Z,5.30
2023-04-26T01:18:50.425Z,5.30
2023-04-26T01:19:50.796Z,5.80
2023-04-26T01:20:51.506Z,4.90
2023-04-26T01:21:52.215Z,5.20
2023-04-26T01:22:52.950Z,6.20
2023-04-26T01:23:53.619Z,5.30
2023-04-26T01:24:54.786Z,5.40
2023-04-26T01:25:54.996Z,5.30
2023-04-26T01:26:55.700Z,5.90
2023-04-26T01:27:56.405Z,5.50
2023-04-26T01:28:57.119Z,5.60
2023-04-26T01:29:58.281Z,6.00
2023-04-26T01:30:58.508Z,5.50
2023-04-26T01:31:59.212Z,5.80
2023-04-26T01:32:59.929Z,5.60
2023-04-26T01:34:00.636Z,6.30
2023-04-26T01:35:01.791Z,5.90
2023-04-26T01:36:01.989Z,6.40
2023-04-26T01:37:02.707Z,6.00
2023-04-26T01:38:03.436Z,5.80
2023-04-26T01:39:04.112Z,6.40
2023-04-26T01:40:05.285Z,6.60
2023-04-26T01:41:05.484Z,6.40
2023-04-26T01:42:06.188Z,6.00
2023-04-26T01:43:06.903Z,6.30
2023-04-26T01:44:07.615Z,6.10
2023-04-26T01:45:08.776Z,6.20
2023-04-26T01:46:09.003Z,6.50
2023-04-26T01:47:09.687Z,6.50
2023-04-26T01:48:10.415Z,6.70
2023-04-26T01:49:11.115Z,6.50
2023-04-26T01:50:12.308Z,6.80
2023-04-26T01:51:12.491Z,6.70
2023-04-26T01:52:13.194Z,6.90
2023-04-26T01:53:14.493Z,6.80
2023-04-26T01:54:14.629Z,6.50
2023-04-26T01:55:15.785Z,6.30
2023-04-26T01:56:15.989Z,7.00
2023-04-26T01:57:16.694Z,6.90
2023-04-26T01:58:17.405Z,6.70
2023-04-26T01:59:18.102Z,7.10
2023-04-26T02:00:19.289Z,7.10
2023-04-26T02:01:19.539Z,7.30
2023-04-26T02:02:20.323Z,7.20
2023-04-26T02:03:21.131Z,6.90
2023-04-26T02:04:21.870Z,6.80
2023-04-26T02:05:22.820Z,6.70
2023-04-26T02:06:23.523Z,6.70
2023-04-26T02:07:24.195Z,7.20
2023-04-26T02:08:25.120Z,7.30
2023-04-26T02:09:25.760Z,6.80
2023-04-26T02:10:26.798Z,7.30
2023-04-26T02:11:27.069Z,6.80
2023-04-26T02:12:27.754Z,7.10
2023-04-26T02:13:28.458Z,7.40
2023-04-26T02:14:29.157Z,7.30
2023-04-26T02:15:30.285Z,7.30
2023-04-26T02:16:30.669Z,7.70
2023-04-26T02:17:31.455Z,7.60
2023-04-26T02:18:32.105Z,7.10
2023-04-26T02:19:32.836Z,7.80
2023-04-26T02:20:33.815Z,7.30
2023-04-26T02:21:34.483Z,7.40
2023-04-26T02:22:35.193Z,7.00
2023-04-26T02:23:35.915Z,7.40
2023-04-26T02:24:36.592Z,7.80
2023-04-26T02:25:37.787Z,7.30
2023-04-26T02:26:37.993Z,7.70
2023-04-26T02:27:38.704Z,7.20
2023-04-26T02:28:39.414Z,7.80
2023-04-26T02:29:43.948Z,7.90
2023-04-26T02:30:40.799Z,8.20
2023-04-26T02:31:41.519Z,7.50
2023-04-26T02:32:42.243Z,7.90
2023-04-26T02:33:42.928Z,7.50
2023-04-26T02:34:43.648Z,7.80
2023-04-26T02:35:44.782Z,7.60
2023-04-26T02:36:44.987Z,7.60
2023-04-26T02:37:45.693Z,7.20
2023-04-26T02:38:46.416Z,8.10
2023-04-26T02:39:47.079Z,8.00
2023-04-26T02:40:48.286Z,8.20
2023-04-26T02:41:48.487Z,7.70
2023-04-26T02:42:49.201Z,8.60
2023-04-26T02:43:49.905Z,8.70
2023-04-26T02:44:50.603Z,8.20
2023-04-26T02:45:51.796Z,8.90
2023-04-26T02:46:52.025Z,8.80
2023-04-26T02:47:52.806Z,9.10
2023-04-26T02:48:53.757Z,9.20
2023-04-26T02:49:54.050Z,9.20
2023-04-26T02:50:54.788Z,9.60
2023-04-26T02:51:55.501Z,9.60
2023-04-26T02:52:56.194Z,9.00
2023-04-26T02:53:56.916Z,8.90
2023-04-26T02:54:57.572Z,9.20
2023-04-26T02:55:58.780Z,9.20
2023-04-26T02:56:58.984Z,9.20
2023-04-26T02:57:59.690Z,9.10
2023-04-26T02:59:00.397Z,8.80
2023-04-26T03:00:01.126Z,9.30
2023-04-26T03:01:02.500Z,9.00
2023-04-26T03:02:02.699Z,8.50
2023-04-26T03:03:03.617Z,8.70
2023-04-26T03:04:04.512Z,8.40
2023-04-26T03:05:05.258Z,8.50
2023-04-26T03:06:06.302Z,8.60
2023-04-26T03:07:06.489Z,8.60
2023-04-26T03:08:07.197Z,8.50
2023-04-26T03:09:07.930Z,8.60
2023-04-26T03:10:08.584Z,8.30
2023-04-26T03:11:09.779Z,8.70
2023-04-26T03:12:09.991Z,8.70
2023-04-26T03:13:10.690Z,8.30
2023-04-26T03:14:11.398Z,8.60
2023-04-26T03:15:12.106Z,8.90
2023-04-26T03:16:13.363Z,8.20
2023-04-26T03:17:13.547Z,8.00
2023-04-26T03:18:14.262Z,8.20
2023-04-26T03:19:14.963Z,8.40
2023-04-26T03:20:15.687Z,8.20
2023-04-26T03:21:16.787Z,8.50
2023-04-26T03:22:16.993Z,8.30
2023-04-26T03:23:17.695Z,8.30
2023-04-26T03:24:18.424Z,8.40
2023-04-26T03:25:19.069Z,8.70
2023-04-26T03:26:19.785Z,8.20
2023-04-26T03:27:20.489Z,8.40
2023-04-26T03:28:21.194Z,8.10
2023-04-26T03:29:21.900Z,8.50
2023-04-26T03:30:22.617Z,9.00
2023-04-26T03:31:23.802Z,9.30
2023-04-26T03:32:23.990Z,8.50
2023-04-26T03:33:24.697Z,8.30
2023-04-26T03:34:25.447Z,8.50
2023-04-26T03:35:26.159Z,8.80
2023-04-26T03:36:27.288Z,8.50
2023-04-26T03:37:27.492Z,8.40
2023-04-26T03:38:28.208Z,9.00
2023-04-26T03:39:28.930Z,9.10
2023-04-26T03:40:29.611Z,8.60
2023-04-26T03:41:30.785Z,8.80
2023-04-26T03:42:30.990Z,9.40
2023-04-26T03:43:31.712Z,9.80
2023-04-26T03:44:32.405Z,9.80
2023-04-26T03:45:33.157Z,9.60
2023-04-26T03:46:34.287Z,8.90
2023-04-26T03:47:34.523Z,9.90
2023-04-26T03:48:35.199Z,9.30
2023-04-26T03:49:35.907Z,9.70
2023-04-26T03:50:36.647Z,9.40
2023-04-26T03:51:37.794Z,9.80
2023-04-26T03:52:38.004Z,10.50
2023-04-26T03:53:38.706Z,9.90
2023-04-26T03:54:39.435Z,10.40
2023-04-26T03:55:40.083Z,10.30
2023-04-26T03:56:41.284Z,10.30
2023-04-26T03:57:41.493Z,10.60
2023-04-26T03:58:42.201Z,10.90
2023-04-26T03:59:42.908Z,10.30
2023-04-26T04:00:43.657Z,10.30
2023-04-26T04:01:44.338Z,10.10
2023-04-26T04:02:45.255Z,10.90
2023-04-26T04:03:45.818Z,11.60
2023-04-26T04:04:46.688Z,11.30
2023-04-26T04:05:47.454Z,10.70
2023-04-26T04:06:48.303Z,11.10
2023-04-26T04:07:49.020Z,11.10
2023-04-26T04:08:49.957Z,12.00
2023-04-26T04:09:50.301Z,11.90
2023-04-26T04:10:50.955Z,11.20
2023-04-26T04:11:51.792Z,11.80
2023-04-26T04:12:52.487Z,11.30
2023-04-26T04:13:53.193Z,12.60
2023-04-26T04:14:53.898Z,11.90
2023-04-26T04:15:54.690Z,11.90
2023-04-26T04:16:55.789Z,11.60
2023-04-26T04:17:56.092Z,12.00
2023-04-26T04:18:56.776Z,13.00
2023-04-26T04:19:57.481Z,12.10
2023-04-26T04:20:58.210Z,12.70
2023-04-26T04:21:59.283Z,13.50
2023-04-26T04:22:59.490Z,13.30
2023-04-26T04:24:00.207Z,13.40
2023-04-26T04:25:00.919Z,13.90
2023-04-26T04:26:01.611Z,13.60
2023-04-26T04:27:02.790Z,13.00
2023-04-26T04:28:03.020Z,13.90
2023-04-26T04:29:03.708Z,13.20
2023-04-26T04:30:04.407Z,13.50
2023-04-26T04:31:05.152Z,13.80
2023-04-26T04:32:06.290Z,13.90
2023-04-26T04:33:06.562Z,13.80
2023-04-26T04:34:07.260Z,13.70
2023-04-26T04:35:07.969Z,13.20
2023-04-26T04:36:08.694Z,13.40
2023-04-26T04:37:09.798Z,13.00
2023-04-26T04:38:09.998Z,13.20
2023-04-26T04:39:10.700Z,13.20
2023-04-26T04:40:11.809Z,14.00
2023-04-26T04:41:12.024Z,13.00
2023-04-26T04:42:12.799Z,13.80
2023-04-26T04:43:13.505Z,13.60
2023-04-26T04:44:14.198Z,13.90
2023-04-26T04:45:14.917Z,13.80
2023-04-26T04:46:15.637Z,12.90
2023-04-26T04:47:16.786Z,13.10
2023-04-26T04:48:16.997Z,13.30
2023-04-26T04:49:17.706Z,12.80
2023-04-26T04:50:18.416Z,12.50
2023-04-26T04:51:19.132Z,12.40
2023-04-26T04:52:20.283Z,11.90
2023-04-26T04:53:20.508Z,12.50
2023-04-26T04:54:21.194Z,12.80
2023-04-26T04:55:21.998Z,12.30
2023-04-26T04:56:22.649Z,12.20
2023-04-26T04:57:23.793Z,12.90
2023-04-26T04:58:23.999Z,12.50
2023-04-26T04:59:24.701Z,13.60
2023-04-26T05:00:25.409Z,13.10
2023-04-26T05:01:26.130Z,13.50
2023-04-26T05:02:27.491Z,13.50
2023-04-26T05:03:27.805Z,14.30
2023-04-26T05:04:28.741Z,14.40
2023-04-26T05:05:29.485Z,15.10
2023-04-26T05:06:30.221Z,14.50
2023-04-26T05:07:31.300Z,13.40
2023-04-26T05:08:31.499Z,14.50
2023-04-26T05:09:32.208Z,14.30
2023-04-26T05:10:33.002Z,14.00
2023-04-26T05:11:33.653Z,14.20
2023-04-26T05:12:34.795Z,14.20
2023-04-26T05:13:35.001Z,13.80
2023-04-26T05:14:35.701Z,14.50
2023-04-26T05:15:36.404Z,13.90
2023-04-26T05:16:37.161Z,14.50
2023-04-26T05:17:38.371Z,13.20
2023-04-26T05:18:38.584Z,12.80
2023-04-26T05:19:39.245Z,12.40
2023-04-26T05:20:39.945Z,13.50
2023-04-26T05:21:40.671Z,12.60
2023-04-26T05:22:41.792Z,12.30
2023-04-26T05:23:42.000Z,12.90
2023-04-26T05:24:42.701Z,12.40
2023-04-26T05:25:43.498Z,13.30
2023-04-26T05:26:44.126Z,12.80
2023-04-26T05:27:45.293Z,13.50
2023-04-26T05:28:45.495Z,13.80
2023-04-26T05:29:46.202Z,14.30
2023-04-26T05:30:46.900Z,13.50
2023-04-26T05:31:47.708Z,14.20
2023-04-26T05:32:48.834Z,13.70
2023-04-26T05:33:49.075Z,13.70
2023-04-26T05:34:49.724Z,13.30
2023-04-26T05:35:50.433Z,13.40
2023-04-26T05:36:51.285Z,13.50
2023-04-26T05:37:52.292Z,13.20
2023-04-26T05:38:52.496Z,13.10
2023-04-26T05:39:53.209Z,12.60
2023-04-26T05:40:54.009Z,12.90
2023-04-26T05:41:54.641Z,13.00
2023-04-26T05:42:55.790Z,12.40
2023-04-26T05:43:56.040Z,12.60
2023-04-26T05:44:56.703Z,12.70
2023-04-26T05:45:57.477Z,12.50
2023-04-26T05:46:58.153Z,12.90
2023-04-26T05:47:59.306Z,13.40
2023-04-26T05:48:59.532Z,13.10
2023-04-26T05:50:00.236Z,12.90
2023-04-26T05:51:00.944Z,12.40
2023-04-26T05:52:01.666Z,12.50
2023-04-26T05:53:02.801Z,11.80
2023-04-26T05:54:03.006Z,12.10
2023-04-26T05:55:03.708Z,12.30
2023-04-26T05:56:04.508Z,11.10
2023-04-26T05:57:05.192Z,11.60
2023-04-26T05:58:06.287Z,11.40
2023-04-26T05:59:06.505Z,11.60
2023-04-26T06:00:07.200Z,11.60
2023-04-26T06:01:07.926Z,11.70
2023-04-26T06:02:08.651Z,11.40
2023-04-26T06:03:10.073Z,11.30
2023-04-26T06:04:10.391Z,11.30
2023-04-26T06:05:10.727Z,11.60
2023-04-26T06:06:11.496Z,11.30
2023-04-26T06:07:12.215Z,11.90
2023-04-26T06:08:13.310Z,11.20
2023-04-26T06:09:13.492Z,10.90
2023-04-26T06:10:14.244Z,10.50
2023-04-26T06:11:14.868Z,11.00
2023-04-26T06:12:15.490Z,10.90
2023-04-26T06:13:16.293Z,10.40
2023-04-26T06:14:23.512Z,10.40
2023-04-26T06:15:18.616Z,11.30
2023-04-26T06:16:18.333Z,10.70
2023-04-26T06:17:19.147Z,10.60
2023-04-26T06:18:20.308Z,10.00
2023-04-26T06:19:20.508Z,10.30
2023-04-26T06:20:21.207Z,10.10
2023-04-26T06:21:21.909Z,10.00
2023-04-26T06:22:22.633Z,10.20
2023-04-26T06:23:23.802Z,10.10
2023-04-26T06:24:24.011Z,9.80
2023-04-26T06:25:24.698Z,9.70
2023-04-26T06:26:25.498Z,10.20
2023-04-26T06:27:26.130Z,9.60
2023-04-26T06:28:26.839Z,9.70
2023-04-26T06:29:27.544Z,9.70
2023-04-26T06:30:28.280Z,9.60
2023-04-26T06:31:29.011Z,9.40
2023-04-26T06:32:29.709Z,9.30
2023-04-26T06:33:30.840Z,9.30
2023-04-26T06:34:31.019Z,9.60
2023-04-26T06:35:31.716Z,9.10
2023-04-26T06:36:32.448Z,9.00
2023-04-26T06:37:33.177Z,9.20
2023-04-26T06:38:34.293Z,8.90
2023-04-26T06:39:34.498Z,9.10
2023-04-26T06:40:35.209Z,8.60
2023-04-26T06:41:36.002Z,8.90
2023-04-26T06:42:36.648Z,8.30
2023-04-26T06:43:37.332Z,7.90
2023-04-26T06:44:38.053Z,7.90
2023-04-26T06:45:39.673Z,7.40
2023-04-26T06:46:39.690Z,7.60
2023-04-26T06:47:40.390Z,7.00
2023-04-26T06:48:41.294Z,6.50
2023-04-26T06:49:41.998Z,6.90
2023-04-26T06:50:42.709Z,6.90
2023-04-26T06:51:43.407Z,7.30
2023-04-26T06:52:44.172Z,7.20
2023-04-26T06:53:45.305Z,7.50
2023-04-26T06:54:55.929Z,7.20
2023-04-26T06:55:47.098Z,7.40
2023-04-26T06:56:47.693Z,7.70
2023-04-26T06:57:47.313Z,7.00
2023-04-26T06:58:48.307Z,7.20
2023-04-26T06:59:49.017Z,7.10
2023-04-26T07:00:49.710Z,7.40
2023-04-26T07:01:50.426Z,7.10
2023-04-26T07:02:51.248Z,6.90
2023-04-26T07:03:52.766Z,7.40
2023-04-26T07:04:52.998Z,6.40
2023-04-26T07:05:53.363Z,5.90
2023-04-26T07:06:54.079Z,5.90
2023-04-26T07:07:54.991Z,5.70
2023-04-26T07:08:55.801Z,6.00
2023-04-26T07:09:56.515Z,6.30
2023-04-26T07:10:57.205Z,6.40
2023-04-26T07:11:57.931Z,6.90
2023-04-26T07:12:58.601Z,6.40
2023-04-26T07:13:59.799Z,6.80
2023-04-26T07:15:00.002Z,6.20
2023-04-26T07:16:00.784Z,6.40
2023-04-26T07:17:01.481Z,5.70
2023-04-26T07:18:02.251Z,5.80
2023-04-26T07:19:03.300Z,6.80
2023-04-26T07:20:03.514Z,6.00
2023-04-26T07:21:04.208Z,6.30
2023-04-26T07:22:04.935Z,5.90
2023-04-26T07:23:05.652Z,6.20
2023-04-26T07:24:06.325Z,6.20
2023-04-26T07:25:07.022Z,6.40
2023-04-26T07:26:07.713Z,6.20
2023-04-26T07:27:08.436Z,5.40
2023-04-26T07:28:09.058Z,5.10
2023-04-26T07:29:09.768Z,5.40
2023-04-26T07:30:10.470Z,4.40
2023-04-26T07:31:11.201Z,3.90
2023-04-26T07:32:11.884Z,4.20
2023-04-26T07:33:12.631Z,4.20
2023-04-26T07:34:13.284Z,4.90
2023-04-26T07:35:13.993Z,4.30
2023-04-26T07:36:14.688Z,4.20
2023-04-26T07:37:15.398Z,4.30
2023-04-26T07:38:16.104Z,2.90
2023-04-26T07:39:16.798Z,3.40
2023-04-26T07:40:17.498Z,3.80
2023-04-26T07:41:18.200Z,4.10
2023-04-26T07:42:18.944Z,3.80
2023-04-26T07:43:19.588Z,4.40
2023-04-26T07:44:20.308Z,4.50
2023-04-26T07:45:21.036Z,4.00
2023-04-26T07:46:21.744Z,3.80
2023-04-26T07:47:22.412Z,3.90
2023-04-26T07:48:23.123Z,3.70
2023-04-26T07:49:24.308Z,3.80
2023-04-26T07:50:24.545Z,3.70
2023-04-26T07:51:25.214Z,4.30
2023-04-26T07:52:26.002Z,3.40
2023-04-26T07:53:26.780Z,3.90
2023-04-26T07:54:27.811Z,3.80
2023-04-26T07:55:28.014Z,4.00
2023-04-26T07:56:28.718Z,3.60
2023-04-26T07:57:29.439Z,4.00
2023-04-26T07:58:30.080Z,3.70
2023-04-26T07:59:30.792Z,3.70
2023-04-26T08:00:31.492Z,3.60
2023-04-26T08:01:32.190Z,3.60
2023-04-26T08:02:44.112Z,3.30
2023-04-26T08:03:34.808Z,3.50
2023-04-26T08:04:34.787Z,3.20
2023-04-26T08:05:35.374Z,2.90
2023-04-26T08:06:35.726Z,3.00
2023-04-26T08:07:36.427Z,2.80
2023-04-26T08:08:37.165Z,3.00
2023-04-26T08:09:37.832Z,2.90
2023-04-26T08:10:38.552Z,2.50
2023-04-26T08:11:39.259Z,3.00
2023-04-26T08:12:39.945Z,2.70
2023-04-26T08:13:40.631Z,3.00
2023-04-26T08:14:41.332Z,2.80
2023-04-26T08:15:42.052Z,3.10
2023-04-26T08:16:42.783Z,3.30
2023-04-26T08:17:43.528Z,3.10
2023-04-26T08:18:46.670Z,2.80
2023-04-26T08:19:45.309Z,3.00
2023-04-26T08:20:46.012Z,2.90
2023-04-26T08:21:46.715Z,3.00
2023-04-26T08:22:47.429Z,2.50
2023-04-26T08:23:48.206Z,3.00
2023-04-26T08:24:49.313Z,3.00
2023-04-26T08:25:49.509Z,3.30
2023-04-26T08:26:50.226Z,3.00
2023-04-26T08:27:50.939Z,3.10
2023-04-26T08:28:51.620Z,3.10
2023-04-26T08:29:52.813Z,2.60
2023-04-26T08:30:53.065Z,2.70
2023-04-26T08:31:53.732Z,2.50
2023-04-26T08:32:54.520Z,2.80
2023-04-26T08:33:55.263Z,3.20
2023-04-26T08:34:56.318Z,3.10
2023-04-26T08:35:56.517Z,2.80
2023-04-26T08:36:57.220Z,2.60
2023-04-26T08:37:57.947Z,2.50
2023-04-26T08:38:58.671Z,2.90
2023-04-26T08:39:59.836Z,2.90
2023-04-26T08:41:00.034Z,3.00
2023-04-26T08:42:00.740Z,3.00
2023-04-26T08:43:01.487Z,2.90
2023-04-26T08:44:02.118Z,3.10
2023-04-26T08:45:02.830Z,2.70
2023-04-26T08:46:03.571Z,2.60
2023-04-26T08:47:04.226Z,2.80
2023-04-26T08:48:05.030Z,2.70
2023-04-26T08:49:05.877Z,2.60
2023-04-26T08:50:06.597Z,2.70
2023-04-26T08:51:07.293Z,2.80
2023-04-26T08:52:07.990Z,2.70
2023-04-26T08:53:08.688Z,2.70
2023-04-26T08:54:09.409Z,2.60
2023-04-26T08:55:10.321Z,2.50
2023-04-26T08:56:11.017Z,2.60
2023-04-26T08:57:11.735Z,2.70
2023-04-26T08:58:12.497Z,2.50
2023-04-26T08:59:15.055Z,2.20
2023-04-26T09:00:13.809Z,2.20
2023-04-26T09:01:14.543Z,2.20
2023-04-26T09:02:15.210Z,2.40
2023-04-26T09:03:16.066Z,2.70
2023-04-26T09:04:17.037Z,2.90
2023-04-26T09:05:17.840Z,2.40
2023-04-26T09:06:18.536Z,2.50
2023-04-26T09:07:19.239Z,2.70
2023-04-26T09:08:19.964Z,2.50
2023-04-26T09:09:20.671Z,2.40
2023-04-26T09:10:21.646Z,2.50
2023-04-26T09:11:21.862Z,2.30
2023-04-26T09:12:22.832Z,2.50
2023-04-26T09:13:23.572Z,2.70
2023-04-26T09:14:24.243Z,2.80
2023-04-26T09:15:25.321Z,2.60
2023-04-26T09:16:25.611Z,2.50
2023-04-26T09:17:26.350Z,2.40
2023-04-26T09:18:27.044Z,2.20
2023-04-26T09:19:27.745Z,2.60
2023-04-26T09:20:28.469Z,2.30
2023-04-26T09:21:29.140Z,2.30
2023-04-26T09:22:29.851Z,2.70
2023-04-26T09:23:30.558Z,2.60
2023-04-26T09:24:31.319Z,2.70
2023-04-26T09:25:32.328Z,2.70
2023-04-26T09:26:32.533Z,2.60
2023-04-26T09:27:33.226Z,2.50
2023-04-26T09:28:33.942Z,2.60
2023-04-26T09:29:34.627Z,2.80
2023-04-26T09:30:35.334Z,2.70
2023-04-26T09:31:36.125Z,3.10
2023-04-26T09:32:36.853Z,2.50
2023-04-26T09:33:37.511Z,2.60
2023-04-26T09:34:38.216Z,2.60
2023-04-26T09:35:39.374Z,2.60
2023-04-26T09:36:39.536Z,2.70
2023-04-26T09:37:50.850Z,2.60
2023-04-26T09:38:41.845Z,2.80
2023-04-26T09:39:41.622Z,2.90
2023-04-26T09:40:42.331Z,3.10
2023-04-26T09:41:43.128Z,2.90
2023-04-26T09:42:43.773Z,2.90
2023-04-26T09:43:44.493Z,2.90
2023-04-26T09:44:45.158Z,3.40
2023-04-26T09:45:46.019Z,3.10
2023-04-26T09:46:46.735Z,3.30
2023-04-26T09:47:47.426Z,2.90
2023-04-26T09:48:48.467Z,3.00
2023-04-26T09:49:49.101Z,2.80
2023-04-26T09:50:49.808Z,2.70
2023-04-26T09:51:50.508Z,2.80
2023-04-26T09:52:51.237Z,3.00
2023-04-26T09:53:51.937Z,3.40
2023-04-26T09:54:52.702Z,3.00
2023-04-26T09:55:53.830Z,4.00
2023-04-26T09:56:54.028Z,3.10
2023-04-26T09:57:54.735Z,3.30
2023-04-26T09:58:55.469Z,3.10
2023-04-26T09:59:56.157Z,3.20
2023-04-26T10:00:57.374Z,3.10
2023-04-26T10:01:57.531Z,3.40
2023-04-26T10:02:58.311Z,2.80
2023-04-26T10:03:59.149Z,3.30
2023-04-26T10:05:00.275Z,3.50
2023-04-26T10:06:00.850Z,3.00
2023-04-26T10:07:01.543Z,3.30
2023-04-26T10:08:02.253Z,3.20
2023-04-26T10:09:02.959Z,3.30
2023-04-26T10:10:03.666Z,3.00
2023-04-26T10:11:04.830Z,3.00
2023-04-26T10:12:05.042Z,2.80
2023-04-26T10:13:05.740Z,2.80
2023-04-26T10:14:06.509Z,3.10
2023-04-26T10:15:07.144Z,3.00
2023-04-26T10:16:07.926Z,3.00
2023-04-26T10:17:08.581Z,3.20
2023-04-26T10:18:09.359Z,2.70
2023-04-26T10:19:09.985Z,2.90
2023-04-26T10:20:10.690Z,2.70
2023-04-26T10:21:11.835Z,3.10
2023-04-26T10:22:12.033Z,3.00
2023-04-26T10:23:12.731Z,3.00
2023-04-26T10:24:13.448Z,3.00
2023-04-26T10:25:14.361Z,2.90
2023-04-26T10:26:15.335Z,3.00
2023-04-26T10:27:15.540Z,3.40
2023-04-26T10:28:16.300Z,3.40
2023-04-26T10:29:17.022Z,3.00
2023-04-26T10:30:17.813Z,3.30
2023-04-26T10:31:18.533Z,3.00
2023-04-26T10:32:19.244Z,3.20
2023-04-26T10:33:19.967Z,3.10
2023-04-26T10:34:20.603Z,3.40
2023-04-26T10:35:21.314Z,3.30
2023-04-26T10:36:22.015Z,3.40
2023-04-26T10:37:22.726Z,3.20
2023-04-26T10:38:23.413Z,3.10
2023-04-26T10:39:24.117Z,3.20
2023-04-26T10:40:25.088Z,3.00
2023-04-26T10:41:25.730Z,3.40
2023-04-26T10:42:27.020Z,3.50
2023-04-26T10:43:26.960Z,3.40
2023-04-26T10:44:34.562Z,3.10
2023-04-26T10:45:29.274Z,3.20
2023-04-26T10:46:29.382Z,3.10
2023-04-26T10:47:29.621Z,3.00
2023-04-26T10:48:30.299Z,3.20
2023-04-26T10:49:31.005Z,3.30
2023-04-26T10:50:31.698Z,3.10
2023-04-26T10:51:32.839Z,3.10
2023-04-26T10:52:33.072Z,3.70
2023-04-26T10:53:33.745Z,3.30
2023-04-26T10:54:34.459Z,3.10
2023-04-26T10:55:35.169Z,2.90
2023-04-26T10:56:36.345Z,3.00
2023-04-26T10:57:36.548Z,2.90
2023-04-26T10:58:37.241Z,2.90
2023-04-26T10:59:51.226Z,3.00
2023-04-26T11:00:39.577Z,2.90
2023-04-26T11:01:39.283Z,2.90
2023-04-26T11:02:40.018Z,2.90
2023-04-26T11:03:40.949Z,2.80
2023-04-26T11:04:41.428Z,3.20
2023-04-26T11:05:42.839Z,2.80
2023-04-26T11:06:43.060Z,3.10
2023-04-26T11:07:43.763Z,3.20
2023-04-26T11:08:44.459Z,3.30
2023-04-26T11:09:45.156Z,3.30
2023-04-26T11:10:45.975Z,3.10
2023-04-26T11:11:46.611Z,3.40
2023-04-26T11:12:47.315Z,3.20
2023-04-26T11:13:48.011Z,3.80
2023-04-26T11:14:48.723Z,3.80
2023-04-26T11:15:52.502Z,3.60
2023-04-26T11:16:50.331Z,3.40
2023-04-26T11:17:51.045Z,4.00
2023-04-26T11:18:51.983Z,3.60
2023-04-26T11:19:52.240Z,3.80
2023-04-26T11:20:52.941Z,3.90
2023-04-26T11:21:54.615Z,3.70
2023-04-26T11:22:54.333Z,3.90
2023-04-26T11:23:55.045Z,3.90
2023-04-26T11:24:55.730Z,4.20
2023-04-26T11:25:56.437Z,3.80
2023-04-26T11:26:57.138Z,4.10
2023-04-26T11:27:57.836Z,3.90
2023-04-26T11:28:58.553Z,4.70
2023-04-26T11:29:59.237Z,4.80
2023-04-26T11:30:59.994Z,4.70
2023-04-26T11:32:00.647Z,3.90
2023-04-26T11:33:01.385Z,4.00
2023-04-26T11:34:02.068Z,4.10
2023-04-26T11:35:02.759Z,4.50
2023-04-26T11:36:03.518Z,4.10
2023-04-26T11:37:04.170Z,4.20
2023-04-26T11:38:04.891Z,4.40
2023-04-26T11:39:05.569Z,4.10
2023-04-26T11:40:06.269Z,4.50
2023-04-26T11:41:06.988Z,4.30
2023-04-26T11:42:07.696Z,4.30
2023-04-26T11:43:08.389Z,4.10
2023-04-26T11:44:09.234Z,4.40
2023-04-26T11:45:09.918Z,4.10
2023-04-26T11:46:10.808Z,4.30
2023-04-26T11:47:11.913Z,4.10
2023-04-26T11:48:12.094Z,3.70
2023-04-26T11:49:12.801Z,4.00
2023-04-26T11:50:13.562Z,4.10
2023-04-26T11:51:14.227Z,3.90
2023-04-26T11:52:15.354Z,4.00
2023-04-26T11:53:15.571Z,4.00
2023-04-26T11:54:16.255Z,4.90
2023-04-26T11:55:16.959Z,4.10
2023-04-26T11:56:17.762Z,4.50
2023-04-26T11:57:18.525Z,4.30
2023-04-26T11:58:19.173Z,4.10
2023-04-26T11:59:19.867Z,4.30
2023-04-26T12:00:20.569Z,4.00
2023-04-26T12:01:21.391Z,4.20
2023-04-26T12:02:22.449Z,4.30
2023-04-26T12:03:22.880Z,4.20
2023-04-26T12:04:23.865Z,4.50
2023-04-26T12:05:24.682Z,4.40
2023-04-26T12:06:25.351Z,4.20
2023-04-26T12:07:26.367Z,4.20
2023-04-26T12:08:26.572Z,4.30
2023-04-26T12:09:27.270Z,4.30
2023-04-26T12:10:27.980Z,4.40
2023-04-26T12:11:28.692Z,4.30
2023-04-26T12:12:29.379Z,3.70
2023-04-26T12:13:30.094Z,3.90
2023-04-26T12:14:30.778Z,4.20
2023-04-26T12:15:31.481Z,4.40
2023-04-26T12:16:32.253Z,3.90
2023-04-26T12:17:33.489Z,3.70
2023-04-26T12:18:33.730Z,3.50
2023-04-26T12:19:34.409Z,4.20
2023-04-26T12:20:35.866Z,4.60
2023-04-26T12:21:36.057Z,4.10
2023-04-26T12:22:36.865Z,3.80
2023-04-26T12:23:37.560Z,4.20
2023-04-26T12:24:38.260Z,3.70
2023-04-26T12:25:38.963Z,3.70
2023-04-26T12:26:39.711Z,3.40
2023-04-26T12:27:40.902Z,3.40
2023-04-26T12:28:41.083Z,3.40
2023-04-26T12:29:41.774Z,3.30
2023-04-26T12:30:42.485Z,3.50
2023-04-26T12:31:43.232Z,3.40
2023-04-26T12:32:44.419Z,3.40
2023-04-26T12:33:44.581Z,3.40
2023-04-26T12:34:45.284Z,3.00
2023-04-26T12:35:46.144Z,3.50
2023-04-26T12:36:46.849Z,3.00
2023-04-26T12:37:47.878Z,3.20
2023-04-26T12:38:48.068Z,2.80
2023-04-26T12:39:48.769Z,3.30
2023-04-26T12:40:49.497Z,2.80
2023-04-26T12:41:50.340Z,3.00
2023-04-26T12:42:51.369Z,2.80
2023-04-26T12:43:51.576Z,3.10
2023-04-26T12:44:52.281Z,2.40
2023-04-26T12:45:53.013Z,2.80
2023-04-26T12:46:56.992Z,2.40
2023-04-26T12:47:54.912Z,2.70
2023-04-26T12:48:55.585Z,2.50
2023-04-26T12:49:56.271Z,2.50
2023-04-26T12:50:56.982Z,2.90
2023-04-26T12:51:57.685Z,2.70
2023-04-26T12:52:58.900Z,2.90
2023-04-26T12:53:59.108Z,3.00
2023-04-26T12:54:59.790Z,2.50
2023-04-26T12:56:00.494Z,2.70
2023-04-26T12:57:01.235Z,2.60
2023-04-26T12:58:02.382Z,2.40
2023-04-26T12:59:02.574Z,2.80
2023-04-26T13:00:03.275Z,2.80
2023-04-26T13:01:04.031Z,2.70
2023-04-26T13:02:04.831Z,2.70
2023-04-26T13:03:06.025Z,3.20
2023-04-26T13:04:06.866Z,2.80
2023-04-26T13:05:07.223Z,2.60
2023-04-26T13:06:07.925Z,2.50
2023-04-26T13:07:08.633Z,2.70
2023-04-26T13:08:09.401Z,2.70
2023-04-26T13:09:10.125Z,2.20
2023-04-26T13:10:12.658Z,2.60
2023-04-26T13:11:11.347Z,2.70
2023-04-26T13:12:12.068Z,2.60
2023-04-26T13:13:12.757Z,2.70
2023-04-26T13:14:13.482Z,2.90
2023-04-26T13:15:16.244Z,2.90
2023-04-26T13:16:15.131Z,2.50
2023-04-26T13:17:15.824Z,3.10
2023-04-26T13:18:16.854Z,3.00
2023-04-26T13:19:17.270Z,2.90
2023-04-26T13:20:17.992Z,2.90
2023-04-26T13:21:18.690Z,2.90
2023-04-26T13:22:19.389Z,2.60
2023-04-26T13:23:20.100Z,2.60